createdAt,value
2023-01-18T00:00:46.789Z,65466.75
2023-01-18T00:06:02.166Z,65459.81
2023-01-18T00:11:07.796Z,65465.03
2023-01-18T00:16:16.181Z,65509.81
2023-01-18T00:21:20.884Z,65481.66
2023-01-18T00:26:25.494Z,65563.88
2023-01-18T00:31:32.009Z,65516.31
2023-01-18T00:36:37.286Z,65507.78
2023-01-18T00:42:02.067Z,65503.53
2023-01-18T00:47:09.208Z,65503.19
2023-01-18T00:52:13.921Z,65589.47
2023-01-18T00:57:19.051Z,65529.09
2023-01-18T01:02:25.681Z,65588.50
2023-01-18T01:07:30.916Z,65567.50
2023-01-18T01:12:53.146Z,65524.41
2023-01-18T01:18:20.188Z,65514.28
2023-01-18T01:23:43.313Z,65557.47
2023-01-18T01:28:59.912Z,65662.69
2023-01-18T01:34:07.246Z,65707.88
2023-01-18T01:39:14.162Z,65601.09
2023-01-18T01:44:48.294Z,65570.38
2023-01-18T01:49:57.671Z,65515.34
2023-01-18T01:55:08.334Z,65511.72
2023-01-18T02:00:19.919Z,65530.81
2023-01-18T02:05:32.569Z,65524.84
2023-01-18T02:10:41.613Z,65503.00
2023-01-18T02:15:59.808Z,65545.63
2023-01-18T02:21:20.139Z,65513.66
2023-01-18T02:27:14.057Z,65508.00
2023-01-18T02:32:32.826Z,65549.38
2023-01-18T02:37:47.849Z,65553.13
2023-01-18T02:43:11.617Z,65606.53
2023-01-18T02:48:24.218Z,65584.59
2023-01-18T02:53:29.906Z,65612.50
2023-01-18T02:58:45.337Z,65657.16
2023-01-18T03:04:11.255Z,65646.13
2023-01-18T03:09:21.681Z,65657.31
2023-01-18T03:14:41.065Z,65682.44
2023-01-18T03:20:08.908Z,65666.50
2023-01-18T03:25:18.182Z,65726.75
2023-01-18T03:30:43.961Z,65794.06
2023-01-18T03:35:59.615Z,65822.81
2023-01-18T03:41:20.611Z,65777.28
2023-01-18T03:46:33.920Z,65868.88
2023-01-18T03:51:54.242Z,65819.63
2023-01-18T03:57:07.160Z,65776.22
2023-01-18T04:02:14.835Z,65863.53
2023-01-18T04:07:26.154Z,65846.16
2023-01-18T04:12:35.216Z,65836.25
2023-01-18T04:17:42.576Z,65828.06
2023-01-18T04:22:53.237Z,65861.41
2023-01-18T04:27:58.101Z,65866.13
2023-01-18T04:33:03.347Z,65917.72
2023-01-18T04:38:09.543Z,65890.53
2023-01-18T04:43:14.276Z,65840.47
2023-01-18T04:48:26.306Z,65915.84
2023-01-18T04:53:36.518Z,65819.50
2023-01-18T04:58:42.807Z,65763.94
2023-01-18T05:03:49.629Z,65775.78
2023-01-18T05:08:58.916Z,65791.28
2023-01-18T05:14:04.035Z,65787.28
2023-01-18T05:19:09.345Z,65737.41
2023-01-18T05:24:15.603Z,65761.97
2023-01-18T05:29:20.254Z,65811.06
2023-01-18T05:34:24.894Z,65800.38
2023-01-18T05:39:31.799Z,65778.47
2023-01-18T05:44:36.491Z,65832.44
2023-01-18T05:49:42.060Z,65861.31
2023-01-18T05:54:54.872Z,65786.59
2023-01-18T06:00:00.020Z,65821.22
2023-01-18T06:05:05.305Z,65857.75
2023-01-18T06:10:12.706Z,65801.44
2023-01-18T06:15:17.415Z,65820.56
2023-01-18T06:20:22.458Z,65850.72
2023-01-18T06:25:28.647Z,65884.28
2023-01-18T06:30:35.922Z,65797.06
2023-01-18T06:35:43.964Z,65893.72
2023-01-18T06:40:51.162Z,65946.97
2023-01-18T06:45:56.514Z,65941.50
2023-01-18T06:51:01.407Z,65962.47
2023-01-18T06:56:13.118Z,65966.75
2023-01-18T07:01:23.588Z,66003.03
2023-01-18T07:06:32.539Z,66059.38
2023-01-18T07:17:25.484Z,66165.94
2023-01-18T07:22:42.642Z,66220.19
2023-01-18T07:28:00.438Z,66251.81
2023-01-18T07:33:14.815Z,66263.91
2023-01-18T07:38:25.140Z,66291.25
2023-01-18T07:43:32.954Z,66318.16
2023-01-18T07:48:39.053Z,66321.91
2023-01-18T07:53:43.648Z,66361.69
2023-01-18T07:58:49.827Z,66320.91
2023-01-18T08:03:54.930Z,66303.22
2023-01-18T08:08:59.804Z,66318.78
2023-01-18T08:14:05.739Z,66336.84
2023-01-18T08:19:14.755Z,66373.59
2023-01-18T08:24:19.576Z,66332.09
2023-01-18T08:29:25.949Z,66390.69
2023-01-18T08:34:30.643Z,66469.09
2023-01-18T08:39:40.753Z,66522.81
2023-01-18T08:44:48.566Z,66445.44
2023-01-18T08:49:53.120Z,66429.34
2023-01-18T08:54:57.980Z,66378.88
2023-01-18T09:00:05.926Z,66302.13
2023-01-18T09:05:11.196Z,66251.22
2023-01-18T09:10:16.223Z,66363.84
2023-01-18T09:15:22.235Z,66355.28
2023-01-18T09:20:27.792Z,66313.97
2023-01-18T09:25:34.334Z,66322.19
2023-01-18T09:30:40.562Z,66202.94
2023-01-18T09:35:45.211Z,66177.84
2023-01-18T09:40:49.747Z,66160.34
2023-01-18T09:46:02.281Z,66128.91
2023-01-18T09:51:20.636Z,66098.81
2023-01-18T09:56:29.106Z,66119.81
2023-01-18T10:01:37.092Z,66170.16
2023-01-18T10:06:49.269Z,66170.78
2023-01-18T10:11:59.783Z,66196.69
2023-01-18T10:17:20.586Z,66136.56
2023-01-18T10:22:54.966Z,66133.09
2023-01-18T10:28:28.087Z,66186.41
2023-01-18T10:33:41.104Z,66232.94
2023-01-18T10:38:53.612Z,66260.88
2023-01-18T10:44:01.015Z,66225.91
2023-01-18T10:49:09.958Z,66249.59
2023-01-18T10:54:25.210Z,66219.56
2023-01-18T10:59:39.819Z,66003.50
2023-01-18T11:04:47.023Z,65920.66
2023-01-18T11:09:55.735Z,65831.72
2023-01-18T11:15:17.667Z,65785.16
2023-01-18T11:20:26.242Z,65747.91
2023-01-18T11:25:42.595Z,65667.91
2023-01-18T11:30:54.658Z,65651.34
2023-01-18T11:36:02.595Z,65629.38
2023-01-18T11:41:16.700Z,65626.81
2023-01-18T11:46:34.983Z,65591.19
2023-01-18T11:51:52.040Z,65565.47
2023-01-18T11:56:59.874Z,65542.97
2023-01-18T12:02:56.960Z,65523.78
2023-01-18T12:08:23.616Z,65510.88
2023-01-18T12:13:38.272Z,65466.75
2023-01-18T12:19:15.803Z,65449.16
2023-01-18T12:24:46.079Z,65438.59
2023-01-18T12:30:07.426Z,65442.84
2023-01-18T12:35:33.967Z,65494.47
2023-01-18T12:40:53.992Z,65477.94
2023-01-18T12:46:05.882Z,65497.56
2023-01-18T12:51:16.161Z,65527.28
2023-01-18T12:56:28.877Z,65537.63
2023-01-18T13:01:40.296Z,65566.00
2023-01-18T13:06:45.785Z,65599.06
2023-01-18T13:11:52.200Z,65607.50
2023-01-18T13:17:04.966Z,65574.53
2023-01-18T13:22:17.900Z,65587.88
2023-01-18T13:27:24.190Z,65613.91
2023-01-18T13:32:34.802Z,65562.81
2023-01-18T13:37:47.858Z,65546.16
2023-01-18T13:42:53.940Z,65545.72
2023-01-18T13:48:02.037Z,65632.59
2023-01-18T13:53:31.573Z,65671.47
2023-01-18T13:58:40.259Z,65664.59
2023-01-18T14:03:48.752Z,65602.91
2023-01-18T14:08:56.323Z,65577.19
2023-01-18T14:14:26.480Z,65568.13
2023-01-18T14:19:34.737Z,65572.28
2023-01-18T14:24:52.864Z,65580.94
2023-01-18T14:30:04.324Z,65599.16
2023-01-18T14:35:19.812Z,65610.91
2023-01-18T14:40:30.231Z,65628.31
2023-01-18T14:45:41.690Z,65650.28
2023-01-18T14:50:50.705Z,65631.72
2023-01-18T14:56:11.087Z,65598.88
2023-01-18T15:01:31.811Z,65599.06
2023-01-18T15:06:41.754Z,65579.31
2023-01-18T15:11:50.986Z,65558.34
2023-01-18T15:16:58.907Z,65555.97
2023-01-18T15:22:08.513Z,65532.84
2023-01-18T15:27:18.653Z,65528.25
2023-01-18T15:32:27.499Z,65530.28
2023-01-18T15:37:34.469Z,65556.94
2023-01-18T15:42:44.932Z,65616.16
2023-01-18T15:47:53.425Z,65632.16
2023-01-18T15:53:06.344Z,65573.13
2023-01-18T15:58:15.807Z,65622.53
2023-01-18T16:03:25.511Z,65573.25
2023-01-18T16:08:30.245Z,65559.59
2023-01-18T16:13:36.681Z,65572.28
2023-01-18T16:18:44.806Z,65562.38
2023-01-18T16:23:51.320Z,65589.38
2023-01-18T16:28:55.965Z,65586.28
2023-01-18T16:34:01.755Z,65585.50
2023-01-18T16:39:06.226Z,65715.84
2023-01-18T16:44:12.146Z,65796.19
2023-01-18T16:49:18.312Z,65773.19
2023-01-18T16:54:22.844Z,65664.28
2023-01-18T16:59:27.389Z,65624.78
2023-01-18T17:04:35.143Z,65623.09
2023-01-18T17:09:47.956Z,65646.47
2023-01-18T17:14:53.099Z,65590.09
2023-01-18T17:19:58.985Z,65576.13
2023-01-18T17:25:03.428Z,65621.59
2023-01-18T17:30:08.908Z,65734.09
2023-01-18T17:35:17.760Z,65786.59
2023-01-18T17:40:30.957Z,65785.91
2023-01-18T17:45:43.985Z,65769.38
2023-01-18T17:50:51.811Z,65805.28
2023-01-18T17:55:56.247Z,65811.59
2023-01-18T18:01:06.511Z,65837.69
2023-01-18T18:06:19.117Z,65833.50
2023-01-18T18:11:31.072Z,65806.69
2023-01-18T18:16:43.202Z,65764.03
2023-01-18T18:21:50.918Z,65750.59
2023-01-18T18:26:55.576Z,65706.25
2023-01-18T18:32:00.239Z,65675.72
2023-01-18T18:37:06.601Z,65714.47
2023-01-18T18:42:11.220Z,65669.59
2023-01-18T18:47:15.881Z,65692.38
2023-01-18T18:52:21.989Z,65714.25
2023-01-18T18:57:27.344Z,65695.84
2023-01-18T19:02:31.962Z,65780.06
2023-01-18T19:07:38.551Z,65809.47
2023-01-18T19:12:43.154Z,65792.97
2023-01-18T19:17:50.738Z,65810.00
2023-01-18T19:22:57.032Z,65795.13
2023-01-18T19:28:01.608Z,65860.34
2023-01-18T19:33:06.804Z,65916.38
2023-01-18T19:38:13.694Z,65744.38
2023-01-18T19:43:18.125Z,65715.31
2023-01-18T19:48:22.586Z,65722.44
2023-01-18T19:53:28.656Z,65680.63
2023-01-18T19:58:33.729Z,65695.56
2023-01-18T20:03:38.430Z,65730.47
2023-01-18T20:08:44.545Z,65634.72
2023-01-18T20:13:50.961Z,65557.91
2023-01-18T20:18:55.916Z,65598.44
2023-01-18T20:24:02.055Z,65650.19
2023-01-18T20:29:07.434Z,65674.66
2023-01-18T20:34:11.946Z,65641.75
2023-01-18T20:39:18.460Z,65605.38
2023-01-18T20:44:27.266Z,65753.34
2023-01-18T20:49:39.223Z,65710.09
2023-01-18T20:54:46.210Z,65651.19
2023-01-18T20:59:50.688Z,65712.66
2023-01-18T21:04:55.341Z,65614.56
2023-01-18T21:10:01.408Z,65576.03
2023-01-18T21:15:10.037Z,65537.09
2023-01-18T21:20:18.041Z,65582.63
2023-01-18T21:25:23.982Z,65653.31
2023-01-18T21:30:29.667Z,65611.88
2023-01-18T21:35:34.095Z,65646.03
2023-01-18T21:40:40.366Z,65724.84
2023-01-18T21:45:57.110Z,65714.78
2023-01-18T21:51:20.034Z,65700.91
2023-01-18T21:56:26.260Z,65507.25
2023-01-18T22:01:34.336Z,65510.66
2023-01-18T22:06:38.907Z,65482.31
2023-01-18T22:11:44.888Z,65445.44
2023-01-18T22:16:49.745Z,65444.91
2023-01-18T22:21:54.290Z,65458.84
2023-01-18T22:27:00.184Z,65525.03
2023-01-18T22:32:04.715Z,65527.59
2023-01-18T22:37:09.248Z,65483.28
2023-01-18T22:42:15.168Z,65444.91
2023-01-18T22:47:19.785Z,65552.91
2023-01-18T22:52:25.009Z,65619.34
2023-01-18T22:57:31.033Z,65604.84
2023-01-18T23:02:35.752Z,65624.69
2023-01-18T23:07:40.366Z,65642.28
2023-01-18T23:12:46.299Z,65631.72
2023-01-18T23:17:51.463Z,65653.50
2023-01-18T23:22:55.918Z,65616.16
2023-01-18T23:28:03.432Z,65563.88
2023-01-18T23:33:07.894Z,65545.81
2023-01-18T23:38:14.931Z,65619.34
2023-01-18T23:43:37.992Z,65628.41
2023-01-18T23:48:59.681Z,65664.06
2023-01-18T23:54:17.086Z,65628.31
2023-01-18T23:59:24.938Z,65668.44
